Bemis, South Dakota
Current Conditions -  °F | °C
As of 5:53 PM on Wednesday 26 Nov 2014 (Local Time) from KATY Reporting Station
Overcast Overcast  
Wind Chill: -9°   Ceiling: 8500
Heat Index:   Visibility: 10mi
Dew Point: -2°   Wind: 12mph
Humidity: 69%   Direction: 340°NNW
Pressure: 30.37"   Gusts: NA
Location:  44.9022°N, 96.7801°W
Report Text: KATY 262353Z AUTO 34010KT 10SM OVC085 M14/M19 A3037 RMK AO2 SLP323 T11441189 11111 21144 51022
Loading
Personal Weather Stations






























Interactive Weather Map New forecast layout! Learn more

10-Day Weather Forecast

Advertisements
Track Severe Weather on mobile